Time;durP1;ratioP1;P1;durP2;ratioP2;P2;SDS_P1;SDS_P2;PMS_P1;PMS_P2;Temp;Humidity;BMP_temperature;BMP_pressure;BME280_temperature;BME280_humidity;BME280_pressure;Samples;Min_cycle;Max_cycle;Signal;HPM_P1;HPM_P2
2021/12/20 00:01:57;;;;;;;3.55;1.67;;;3.40;94.00;;;;;;5094934;28;20066;-76
2021/12/20 00:04:23;;;;;;;3.10;1.35;;;3.80;92.90;;;;;;5093508;28;20044;-76
2021/12/20 00:06:48;;;;;;;2.03;1.10;;;4.10;92.00;;;;;;5099845;28;20461;-76
2021/12/20 00:09:14;;;;;;;4.00;1.42;;;4.40;91.40;;;;;;5113903;28;20085;-76
2021/12/20 00:11:40;;;;;;;3.58;1.30;;;4.60;91.20;;;;;;5104377;28;20046;-76
2021/12/20 00:14:06;;;;;;;2.92;1.50;;;4.80;90.80;;;;;;5106545;28;20110;-76
2021/12/20 00:16:32;;;;;;;3.55;1.40;;;4.90;90.60;;;;;;5093626;28;20039;-76
2021/12/20 00:18:58;;;;;;;2.28;1.15;;;4.80;90.60;;;;;;5093405;28;20115;-76
2021/12/20 00:21:23;;;;;;;3.85;2.20;;;4.50;91.40;;;;;;5076864;28;20463;-76
2021/12/20 00:23:49;;;;;;;4.43;2.03;;;4.00;92.50;;;;;;5090034;28;20059;-76
2021/12/20 00:26:15;;;;;;;3.45;1.20;;;4.00;92.40;;;;;;5091806;28;20027;-76
2021/12/20 00:28:41;;;;;;;3.85;1.77;;;4.20;91.70;;;;;;5106011;28;20508;-76
2021/12/20 00:31:07;;;;;;;5.10;2.13;;;3.90;92.40;;;;;;5091418;28;20173;-76
2021/12/20 00:33:34;;;;;;;4.75;2.40;;;3.80;93.20;;;;;;5110100;28;20549;-75
2021/12/20 00:36:07;;;;;;;4.78;2.55;;;3.70;93.60;;;;;;5091130;28;20116;-76
2021/12/20 00:41:19;;;;;;;6.32;2.83;;;3.30;94.30;;;;;;5102334;28;20065;-75
2021/12/20 00:43:45;;;;;;;4.63;2.13;;;3.30;94.10;;;;;;5113481;28;20024;-75
2021/12/20 00:46:11;;;;;;;6.35;3.38;;;3.30;93.80;;;;;;5093215;28;20923;-75
2021/12/20 00:48:36;;;;;;;3.83;1.60;;;3.20;93.90;;;;;;5093023;28;20062;-76
2021/12/20 00:51:02;;;;;;;3.40;1.50;;;3.30;93.60;;;;;;5093221;28;20566;-75
2021/12/20 00:53:28;;;;;;;3.72;1.40;;;3.50;93.40;;;;;;5093124;28;20547;-75
2021/12/20 00:55:54;;;;;;;3.00;1.63;;;3.60;92.50;;;;;;5093450;28;20069;-76
2021/12/20 00:58:20;;;;;;;3.13;1.48;;;3.60;92.70;;;;;;5092951;28;20032;-75
2021/12/20 01:00:51;;;;;;;3.67;1.65;;;3.60;92.90;;;;;;5092891;28;20040;-76
2021/12/20 01:03:18;;;;;;;4.65;1.95;;;3.40;93.10;;;;;;5074340;28;20392;-75
2021/12/20 01:05:44;;;;;;;5.30;2.15;;;3.30;93.70;;;;;;5092835;28;20048;-76
2021/12/20 01:08:10;;;;;;;3.70;1.20;;;3.10;93.70;;;;;;5111877;28;20031;-75
2021/12/20 01:10:39;;;;;;;3.50;1.58;;;3.70;92.30;;;;;;5113483;28;20030;-76
2021/12/20 01:13:06;;;;;;;6.75;2.22;;;4.50;91.00;;;;;;5108746;28;20027;-75
2021/12/20 01:15:36;;;;;;;4.25;2.00;;;4.70;90.50;;;;;;5094622;28;20375;-75
2021/12/20 01:18:05;;;;;;;5.00;2.42;;;4.40;91.70;;;;;;5092572;28;20131;-75
2021/12/20 01:20:32;;;;;;;6.00;2.65;;;3.70;93.10;;;;;;5091079;28;20363;-76
2021/12/20 01:22:58;;;;;;;5.43;2.40;;;3.40;93.40;;;;;;5090814;28;20052;-75
2021/12/20 01:25:24;;;;;;;4.93;2.10;;;3.40;93.40;;;;;;5090376;28;20020;-75
2021/12/20 01:27:51;;;;;;;3.70;1.98;;;3.40;93.30;;;;;;5090880;28;20019;-75
2021/12/20 01:30:19;;;;;;;4.18;1.95;;;3.30;93.10;;;;;;5091050;28;20390;-76
2021/12/20 01:32:45;;;;;;;4.72;1.98;;;3.10;93.30;;;;;;5097223;28;20072;-75
2021/12/20 01:35:11;;;;;;;3.67;1.92;;;3.20;93.10;;;;;;5092606;28;20043;-76
2021/12/20 01:37:38;;;;;;;3.47;1.52;;;3.20;93.00;;;;;;5092802;28;20059;-76
2021/12/20 01:40:06;;;;;;;3.33;1.40;;;3.60;92.10;;;;;;5107419;28;20389;-76
2021/12/20 01:42:34;;;;;;;3.95;1.60;;;4.20;91.20;;;;;;5110551;28;20435;-75
2021/12/20 01:45:00;;;;;;;3.28;1.42;;;4.20;91.70;;;;;;5092689;28;20632;-76
2021/12/20 01:47:30;;;;;;;6.78;2.20;;;3.80;92.00;;;;;;5092124;28;20035;-76
2021/12/20 01:50:02;;;;;;;5.00;2.17;;;3.60;92.50;;;;;;5090997;28;20032;-76
2021/12/20 01:52:39;;;;;;;3.45;1.90;;;3.30;92.90;;;;;;5078325;28;20024;-76
2021/12/20 01:55:06;;;;;;;4.65;1.83;;;3.20;93.10;;;;;;5091535;28;20067;-75
2021/12/20 01:57:31;;;;;;;4.45;1.70;;;3.10;93.50;;;;;;5092310;28;20059;-75
2021/12/20 01:59:57;;;;;;;3.83;1.42;;;3.10;93.30;;;;;;5091450;28;20411;-76
2021/12/20 02:02:23;;;;;;;3.70;1.23;;;3.50;92.20;;;;;;5093142;28;20043;-76
2021/12/20 02:04:50;;;;;;;3.75;2.05;;;3.50;92.40;;;;;;5112307;28;20488;-76
2021/12/20 02:07:35;;;;;;;5.13;2.70;;;3.20;93.20;;;;;;5101951;28;20028;-76
2021/12/20 02:10:01;;;;;;;5.00;2.13;;;3.00;94.10;;;;;;5105301;28;20442;-75
2021/12/20 02:12:27;;;;;;;5.75;2.00;;;2.70;94.80;;;;;;5100775;28;20667;-76
2021/12/20 02:14:52;;;;;;;4.45;1.33;;;2.70;94.50;;;;;;5109612;28;20031;-76
2021/12/20 02:17:18;;;;;;;3.38;1.30;;;3.50;92.10;;;;;;5079971;28;20386;-76
2021/12/20 02:19:44;;;;;;;3.17;1.52;;;3.60;92.30;;;;;;5090006;28;20032;-76
2021/12/20 02:22:10;;;;;;;5.07;1.65;;;3.30;92.70;;;;;;5089844;28;20028;-75
2021/12/20 02:24:35;;;;;;;4.40;2.40;;;3.20;92.70;;;;;;5097138;28;20028;-76
2021/12/20 02:27:01;;;;;;;6.07;1.52;;;3.10;92.80;;;;;;5090806;28;20084;-75
2021/12/20 02:29:43;;;;;;;2.67;1.23;;;3.30;92.60;;;;;;5097099;28;20032;-76
2021/12/20 02:37:37;;;;;;;5.60;1.75;;;3.50;92.00;;;;;;5100844;28;20098;-76
2021/12/20 02:40:03;;;;;;;2.20;1.23;;;4.30;90.60;;;;;;5092305;28;20024;-76
2021/12/20 02:42:36;;;;;;;2.80;1.38;;;4.60;90.00;;;;;;5091523;28;20043;-76
2021/12/20 02:45:14;;;;;;;4.13;1.52;;;4.60;90.00;;;;;;5091300;28;20036;-76
2021/12/20 02:47:45;;;;;;;4.88;1.75;;;4.40;90.20;;;;;;5090841;28;20088;-76
2021/12/20 02:50:12;;;;;;;4.90;1.85;;;3.90;91.70;;;;;;5090898;28;20110;-76
2021/12/20 02:52:39;;;;;;;4.78;2.05;;;3.30;93.20;;;;;;5091245;28;20098;-76
2021/12/20 02:55:07;;;;;;;3.17;1.50;;;3.20;93.60;;;;;;5092668;28;20043;-76
2021/12/20 02:57:37;;;;;;;3.88;1.52;;;3.70;91.30;;;;;;5091304;28;20110;-76
2021/12/20 03:00:08;;;;;;;3.70;1.30;;;3.80;91.50;;;;;;5090296;28;20028;-76
2021/12/20 03:02:34;;;;;;;3.58;1.50;;;3.50;91.90;;;;;;5091175;28;20425;-76
2021/12/20 03:05:00;;;;;;;4.45;1.60;;;3.30;92.30;;;;;;5090383;28;20495;-76
2021/12/20 03:07:27;;;;;;;4.05;1.55;;;3.10;92.70;;;;;;5090734;28;20107;-76
2021/12/20 03:10:02;;;;;;;5.40;2.33;;;3.00;92.80;;;;;;5092605;28;20046;-76
2021/12/20 03:12:31;;;;;;;3.00;1.25;;;2.90;92.90;;;;;;5091790;28;20020;-75
2021/12/20 03:15:03;;;;;;;3.80;1.75;;;3.00;92.40;;;;;;5105781;28;20047;-75
2021/12/20 03:17:29;;;;;;;3.45;1.35;;;3.60;91.40;;;;;;5074569;28;20383;-75
2021/12/20 03:19:55;;;;;;;5.85;1.80;;;3.60;91.30;;;;;;5073761;28;20031;-75
2021/12/20 03:22:20;;;;;;;6.93;1.30;;;3.30;92.00;;;;;;5088664;28;20028;-75
2021/12/20 03:24:48;;;;;;;2.30;1.17;;;3.10;93.00;;;;;;5096622;28;20031;-76
2021/12/20 03:27:14;;;;;;;3.50;1.40;;;2.90;93.40;;;;;;5088966;28;20028;-75
2021/12/20 03:29:39;;;;;;;2.67;1.38;;;2.80;93.20;;;;;;5089349;28;20036;-76
2021/12/20 03:32:05;;;;;;;3.15;1.50;;;2.70;93.60;;;;;;5079121;28;20060;-75
2021/12/20 03:34:31;;;;;;;4.13;1.67;;;2.70;93.10;;;;;;5101496;28;20032;-76
2021/12/20 03:36:57;;;;;;;2.70;1.45;;;3.10;92.20;;;;;;5100882;28;20043;-76
2021/12/20 03:39:23;;;;;;;2.60;1.10;;;3.50;91.30;;;;;;5106063;28;20028;-76
2021/12/20 03:41:48;;;;;;;2.03;1.05;;;3.60;91.30;;;;;;5093366;28;20043;-76
2021/12/20 03:44:14;;;;;;;3.15;1.38;;;3.30;92.00;;;;;;5103014;28;20060;-76
2021/12/20 03:46:40;;;;;;;3.20;1.00;;;3.10;92.10;;;;;;5090350;28;20035;-75
2021/12/20 03:49:07;;;;;;;2.55;1.05;;;3.20;91.60;;;;;;5090130;28;20028;-75
2021/12/20 03:51:33;;;;;;;2.67;1.25;;;3.70;90.80;;;;;;5072049;28;20390;-76
2021/12/20 03:53:59;;;;;;;4.85;1.80;;;3.70;91.10;;;;;;5101939;28;20039;-76
2021/12/20 03:56:25;;;;;;;4.65;2.17;;;2.80;93.00;;;;;;5090025;28;20048;-76
2021/12/20 03:58:51;;;;;;;4.40;1.83;;;2.60;93.60;;;;;;5072108;28;20401;-75
2021/12/20 04:01:17;;;;;;;3.13;1.50;;;2.20;94.30;;;;;;5090039;28;20032;-74
2021/12/20 04:03:43;;;;;;;3.28;1.42;;;2.30;93.50;;;;;;5073906;28;20047;-74
2021/12/20 04:06:11;;;;;;;2.42;1.08;;;2.40;93.20;;;;;;5089820;28;20048;-74
2021/12/20 04:08:37;;;;;;;4.57;1.02;;;2.90;92.10;;;;;;5081922;28;20032;-74
2021/12/20 04:11:04;;;;;;;2.83;1.17;;;2.90;91.90;;;;;;5082581;28;20036;-74
2021/12/20 04:13:30;;;;;;;2.10;1.10;;;2.90;92.40;;;;;;5085007;28;20032;-74
2021/12/20 04:15:55;;;;;;;2.28;1.00;;;2.70;93.10;;;;;;5086329;28;20043;-74
2021/12/20 04:18:22;;;;;;;1.80;0.80;;;3.10;91.70;;;;;;5069549;28;20032;-75
2021/12/20 04:20:48;;;;;;;2.95;1.00;;;3.30;91.40;;;;;;5078868;28;20024;-74
2021/12/20 04:23:14;;;;;;;2.80;1.05;;;3.00;92.10;;;;;;5087303;28;20056;-74
2021/12/20 04:25:39;;;;;;;2.85;1.00;;;2.70;93.60;;;;;;5091539;28;20047;-74
2021/12/20 04:28:05;;;;;;;1.95;0.88;;;2.60;93.50;;;;;;5087785;28;20028;-74
2021/12/20 04:30:32;;;;;;;2.75;1.48;;;2.90;92.00;;;;;;5103310;28;20024;-74
2021/12/20 04:32:58;;;;;;;2.78;0.95;;;3.10;91.80;;;;;;5088069;28;20020;-74
2021/12/20 04:35:24;;;;;;;2.60;1.00;;;2.80;92.40;;;;;;5089679;28;20100;-74
2021/12/20 04:37:51;;;;;;;2.53;1.10;;;3.40;91.00;;;;;;5088821;28;20032;-74
2021/12/20 04:40:21;;;;;;;1.60;0.73;;;4.00;90.00;;;;;;5088701;28;20020;-75
2021/12/20 04:42:49;;;;;;;2.53;0.93;;;4.20;88.60;;;;;;5095367;28;20023;-74
2021/12/20 04:45:15;;;;;;;4.80;2.13;;;3.70;91.00;;;;;;5106856;28;20024;-74
2021/12/20 04:47:40;;;;;;;6.70;2.53;;;2.90;93.10;;;;;;5101401;28;20566;-75
2021/12/20 04:50:07;;;;;;;6.82;2.53;;;2.80;93.50;;;;;;5085944;28;20103;-75
2021/12/20 04:52:33;;;;;;;8.93;6.47;;;2.40;93.70;;;;;;5088302;28;20081;-74
2021/12/20 04:54:58;;;;;;;7.65;3.55;;;2.30;94.00;;;;;;5089040;28;20032;-74
2021/12/20 04:57:24;;;;;;;3.85;2.17;;;2.10;94.60;;;;;;5101845;28;20076;-74
2021/12/20 04:59:50;;;;;;;5.68;2.25;;;2.10;95.00;;;;;;5105770;28;20042;-74
2021/12/20 05:02:16;;;;;;;4.78;2.08;;;2.00;95.00;;;;;;5092667;28;20054;-74
2021/12/20 05:04:42;;;;;;;3.97;1.55;;;1.80;95.30;;;;;;5109189;28;20128;-74
2021/12/20 05:07:08;;;;;;;3.42;1.35;;;2.30;93.80;;;;;;5097388;28;20028;-74
2021/12/20 05:09:38;;;;;;;4.57;1.40;;;2.40;94.40;;;;;;5106123;28;20027;-74
2021/12/20 05:12:11;;;;;;;1.70;1.17;;;2.50;93.60;;;;;;5090120;28;20038;-74
2021/12/20 05:14:40;;;;;;;3.28;1.83;;;2.50;93.20;;;;;;5085278;28;20514;-74
2021/12/20 05:17:06;;;;;;;4.70;1.92;;;2.30;94.00;;;;;;5087644;28;20016;-74
2021/12/20 05:19:32;;;;;;;2.78;1.30;;;2.30;94.00;;;;;;5081288;28;20043;-74
2021/12/20 05:21:58;;;;;;;1.20;0.60;;;2.30;93.60;;;;;;5091234;28;20617;-74
2021/12/20 05:24:24;;;;;;;3.47;1.17;;;2.80;91.90;;;;;;5107520;28;20027;-74
2021/12/20 05:26:50;;;;;;;1.88;0.90;;;3.20;91.50;;;;;;5092502;28;20035;-74
2021/12/20 05:29:15;;;;;;;1.80;0.88;;;3.50;90.90;;;;;;5088100;28;20093;-74
2021/12/20 05:31:41;;;;;;;2.25;1.00;;;3.40;91.10;;;;;;5088158;28;20032;-75
2021/12/20 05:34:07;;;;;;;2.33;0.90;;;3.30;90.80;;;;;;5087648;28;20111;-75
2021/12/20 05:36:32;;;;;;;2.70;1.00;;;3.60;90.60;;;;;;5087721;28;20036;-75
2021/12/20 05:38:58;;;;;;;2.47;0.93;;;3.50;90.70;;;;;;5087850;28;20032;-75
2021/12/20 05:41:24;;;;;;;1.75;0.80;;;3.60;90.30;;;;;;5088085;28;20045;-74
2021/12/20 05:43:50;;;;;;;2.28;0.88;;;3.50;90.60;;;;;;5087798;28;20421;-74
2021/12/20 05:46:16;;;;;;;2.92;1.27;;;3.50;90.20;;;;;;5088055;28;20039;-74
2021/12/20 05:48:42;;;;;;;2.85;1.20;;;3.80;90.10;;;;;;5087259;28;20032;-74
2021/12/20 05:51:08;;;;;;;2.45;1.10;;;3.80;89.50;;;;;;5088563;28;20031;-74
2021/12/20 05:53:33;;;;;;;2.28;0.95;;;3.80;89.80;;;;;;5087992;28;20058;-74
2021/12/20 05:55:59;;;;;;;3.00;1.40;;;3.80;90.10;;;;;;5090814;28;20074;-74
2021/12/20 05:58:25;;;;;;;2.28;1.20;;;3.70;89.80;;;;;;5108109;28;20395;-74
2021/12/20 06:00:51;;;;;;;1.88;0.88;;;3.50;90.30;;;;;;5102887;28;20020;-74
2021/12/20 06:03:16;;;;;;;3.97;2.00;;;3.10;91.50;;;;;;5099584;28;20031;-74
2021/12/20 06:05:42;;;;;;;4.47;2.33;;;3.20;90.80;;;;;;5087167;28;20596;-74
2021/12/20 06:08:09;;;;;;;3.60;1.40;;;2.90;91.40;;;;;;5087544;28;20398;-74
2021/12/20 06:10:36;;;;;;;3.80;1.55;;;3.00;91.00;;;;;;5088151;28;20032;-74
2021/12/20 06:13:03;;;;;;;4.75;1.90;;;3.50;90.30;;;;;;5097816;28;20036;-74
2021/12/20 06:15:30;;;;;;;3.63;1.27;;;3.70;90.20;;;;;;5088554;28;20031;-74
2021/12/20 06:17:56;;;;;;;3.13;1.20;;;3.60;90.20;;;;;;5087344;28;20036;-74
2021/12/20 06:20:22;;;;;;;3.45;1.55;;;3.70;90.30;;;;;;5069334;28;20020;-74
2021/12/20 06:22:48;;;;;;;5.65;1.50;;;3.70;90.20;;;;;;5087763;28;20553;-74
2021/12/20 06:25:14;;;;;;;4.65;1.20;;;3.60;90.20;;;;;;5083794;28;20035;-74
2021/12/20 06:27:40;;;;;;;2.75;1.20;;;3.40;90.50;;;;;;5106123;28;20031;-74
2021/12/20 06:30:10;;;;;;;5.38;1.30;;;3.40;90.60;;;;;;5090178;28;20032;-74
2021/12/20 06:32:43;;;;;;;2.92;1.10;;;3.30;90.70;;;;;;5086260;28;20549;-74
2021/12/20 06:35:09;;;;;;;2.97;1.08;;;3.20;90.80;;;;;;5090550;28;20036;-76
2021/12/20 06:37:35;;;;;;;4.63;1.30;;;3.30;90.50;;;;;;5089130;28;20053;-72
2021/12/20 06:40:01;;;;;;;2.60;1.20;;;3.30;90.40;;;;;;5086711;28;20099;-73
2021/12/20 06:42:27;;;;;;;3.50;1.15;;;3.30;90.40;;;;;;5085487;28;20046;-73
2021/12/20 06:44:53;;;;;;;4.78;1.67;;;3.20;91.20;;;;;;5089964;28;20032;-74
2021/12/20 06:47:19;;;;;;;2.50;1.02;;;3.40;90.90;;;;;;5086429;28;20031;-73
2021/12/20 06:49:46;;;;;;;3.95;1.58;;;3.30;90.40;;;;;;5087074;28;20553;-73
2021/12/20 06:52:12;;;;;;;3.63;1.30;;;3.20;90.30;;;;;;5086934;28;20039;-72
2021/12/20 06:54:38;;;;;;;3.35;1.10;;;3.20;90.50;;;;;;5089235;28;20047;-73
2021/12/20 06:57:04;;;;;;;5.20;1.23;;;3.00;90.80;;;;;;5099401;28;20031;-73
2021/12/20 06:59:30;;;;;;;5.95;1.20;;;3.00;90.90;;;;;;5107428;28;20095;-73
2021/12/20 07:01:56;;;;;;;2.00;0.77;;;3.10;90.70;;;;;;5107236;28;20701;-73
2021/12/20 07:04:22;;;;;;;5.07;1.25;;;3.20;90.30;;;;;;5099777;28;20099;-72
2021/12/20 07:06:48;;;;;;;5.03;1.30;;;3.00;91.10;;;;;;5068727;28;20020;-73
2021/12/20 07:09:14;;;;;;;3.13;1.25;;;2.90;91.00;;;;;;5086839;28;20078;-73
2021/12/20 07:11:41;;;;;;;2.22;0.80;;;2.90;90.80;;;;;;5087348;28;20028;-72
2021/12/20 07:14:08;;;;;;;4.18;1.08;;;2.90;90.90;;;;;;5088523;28;20052;-73
2021/12/20 07:16:35;;;;;;;3.90;1.08;;;3.10;90.60;;;;;;5106813;28;20624;-73
2021/12/20 07:19:02;;;;;;;5.80;1.08;;;3.20;90.10;;;;;;5106856;28;20031;-72
2021/12/20 07:21:28;;;;;;;5.90;1.00;;;3.30;90.30;;;;;;5068373;28;20021;-73
2021/12/20 07:23:54;;;;;;;3.00;1.20;;;3.20;90.50;;;;;;5066448;28;20032;-73
2021/12/20 07:26:20;;;;;;;3.25;1.00;;;2.90;91.20;;;;;;5101201;28;20434;-72
2021/12/20 07:28:46;;;;;;;3.92;1.50;;;2.50;92.00;;;;;;5107100;28;20023;-72
2021/12/20 07:31:13;;;;;;;3.53;1.25;;;2.30;92.20;;;;;;5106915;28;20023;-75
2021/12/20 07:33:39;;;;;;;3.28;1.20;;;2.20;92.30;;;;;;5113253;28;20080;-74
2021/12/20 07:36:05;;;;;;;3.13;1.50;;;2.40;91.90;;;;;;5093536;28;20032;-73
2021/12/20 07:38:31;;;;;;;2.85;1.17;;;2.30;92.50;;;;;;5099641;28;20039;-73
2021/12/20 07:40:57;;;;;;;4.57;1.27;;;2.30;92.80;;;;;;5104062;28;20087;-73
2021/12/20 07:43:24;;;;;;;3.13;1.52;;;2.30;92.60;;;;;;5103054;28;20481;-73
2021/12/20 07:45:50;;;;;;;5.65;1.65;;;2.30;92.30;;;;;;5103901;28;20058;-73
2021/12/20 07:48:20;;;;;;;3.97;1.38;;;2.30;92.00;;;;;;5095468;28;20054;-73
2021/12/20 07:50:47;;;;;;;3.55;1.40;;;2.30;92.70;;;;;;5099786;28;20028;-73
2021/12/20 07:53:14;;;;;;;4.45;1.33;;;2.30;92.70;;;;;;5107721;28;20066;-73
2021/12/20 07:55:39;;;;;;;2.78;1.33;;;2.60;91.80;;;;;;5107598;28;20035;-73
2021/12/20 07:58:05;;;;;;;2.47;1.02;;;2.60;92.10;;;;;;5107763;28;20073;-73
2021/12/20 08:00:31;;;;;;;2.30;0.95;;;2.30;92.70;;;;;;5099647;28;20085;-73
2021/12/20 08:02:57;;;;;;;5.38;1.20;;;2.20;93.90;;;;;;5086383;28;20020;-73
2021/12/20 08:05:27;;;;;;;3.35;1.10;;;2.10;93.30;;;;;;5085861;28;20048;-73
2021/12/20 08:07:53;;;;;;;2.40;1.10;;;2.30;92.80;;;;;;5087008;28;20069;-73
2021/12/20 08:10:21;;;;;;;4.50;1.05;;;2.70;91.80;;;;;;5088641;28;20028;-73
2021/12/20 08:12:48;;;;;;;4.28;1.38;;;2.70;91.80;;;;;;5092374;28;20039;-73
2021/12/20 08:15:16;;;;;;;2.15;0.95;;;2.80;91.60;;;;;;5086557;28;20028;-73
2021/12/20 08:17:41;;;;;;;3.35;0.85;;;2.80;91.90;;;;;;5086565;28;20028;-73
2021/12/20 08:20:10;;;;;;;4.22;1.30;;;2.80;91.90;;;;;;5086691;28;20031;-73
2021/12/20 08:22:36;;;;;;;4.57;1.33;;;2.70;92.10;;;;;;5071589;28;20047;-73
2021/12/20 08:25:03;;;;;;;3.03;1.30;;;2.70;91.50;;;;;;5065684;28;20101;-73
2021/12/20 08:27:29;;;;;;;3.15;1.20;;;3.00;90.90;;;;;;5064636;28;20884;-73
2021/12/20 08:29:55;;;;;;;1.98;1.10;;;3.10;90.90;;;;;;5068048;28;20120;-73
2021/12/20 08:32:20;;;;;;;2.50;0.88;;;3.00;91.30;;;;;;5065911;28;20666;-75
2021/12/20 08:34:46;;;;;;;4.35;1.95;;;3.10;90.80;;;;;;5066176;28;20025;-74
2021/12/20 08:37:12;;;;;;;5.85;2.28;;;3.20;90.60;;;;;;5065407;28;20020;-75
2021/12/20 08:39:38;;;;;;;3.75;1.70;;;3.30;90.80;;;;;;5064598;28;20442;-73
2021/12/20 08:42:04;;;;;;;4.30;1.65;;;3.20;91.00;;;;;;5085903;28;20020;-74
2021/12/20 08:44:31;;;;;;;2.83;1.25;;;3.60;89.80;;;;;;5087169;28;20352;-74
2021/12/20 08:46:58;;;;;;;34.88;19.13;;;3.60;90.00;;;;;;5086928;28;20035;-74
2021/12/20 08:49:24;;;;;;;10.57;6.13;;;3.40;90.50;;;;;;5102494;28;20020;-74
2021/12/20 08:51:50;;;;;;;7.30;4.00;;;3.20;90.60;;;;;;5101371;28;20028;-74
2021/12/20 08:54:16;;;;;;;6.72;3.50;;;3.20;91.00;;;;;;5107006;28;20031;-74
2021/12/20 08:56:42;;;;;;;7.53;2.13;;;3.20;90.80;;;;;;5107225;28;20035;-74
2021/12/20 08:59:08;;;;;;;5.30;1.70;;;3.10;91.30;;;;;;5106631;28;20015;-74
2021/12/20 09:01:35;;;;;;;6.03;3.05;;;3.00;91.90;;;;;;5097061;28;20024;-73
2021/12/20 09:04:04;;;;;;;5.95;3.20;;;3.00;91.00;;;;;;5081625;28;20118;-74
2021/12/20 09:06:31;;;;;;;7.90;2.78;;;3.10;91.10;;;;;;5085705;28;20108;-74
2021/12/20 09:08:57;;;;;;;3.80;2.03;;;3.00;91.80;;;;;;5086276;28;20471;-74
2021/12/20 09:11:23;;;;;;;7.35;2.72;;;2.90;92.00;;;;;;5091426;28;20123;-74
2021/12/20 09:13:49;;;;;;;4.78;2.15;;;3.00;91.20;;;;;;5106737;28;20031;-74
2021/12/20 09:16:15;;;;;;;3.55;1.98;;;3.20;90.80;;;;;;5097021;28;20035;-74
2021/12/20 09:18:41;;;;;;;6.32;1.80;;;3.10;91.30;;;;;;5086228;28;20028;-74
2021/12/20 09:21:11;;;;;;;3.58;1.67;;;3.10;91.00;;;;;;5085065;28;20055;-74
2021/12/20 09:23:38;;;;;;;4.15;1.90;;;3.10;91.10;;;;;;5069480;28;20025;-74
2021/12/20 09:26:04;;;;;;;4.47;2.10;;;3.00;91.70;;;;;;5074324;28;20030;-74
2021/12/20 09:28:31;;;;;;;3.20;1.55;;;3.00;91.50;;;;;;5103969;28;20026;-74
2021/12/20 09:30:56;;;;;;;2.70;1.10;;;2.90;92.40;;;;;;5085785;28;20042;-74
2021/12/20 09:33:22;;;;;;;2.70;1.30;;;2.80;92.40;;;;;;5085971;28;20498;-74
2021/12/20 09:35:50;;;;;;;5.45;1.70;;;2.90;92.30;;;;;;5085578;28;20032;-74
2021/12/20 09:38:18;;;;;;;3.20;1.23;;;2.80;92.80;;;;;;5067567;28;20032;-74
2021/12/20 09:43:31;;;;;;;3.88;1.40;;;2.90;91.80;;;;;;5106075;28;20062;-74
2021/12/20 09:45:57;;;;;;;2.95;1.15;;;3.00;91.90;;;;;;5105930;28;20027;-74
2021/12/20 09:48:23;;;;;;;3.38;1.38;;;3.10;91.80;;;;;;5105890;28;20034;-74
2021/12/20 09:50:49;;;;;;;3.63;1.48;;;3.50;90.30;;;;;;5102990;28;20028;-74
2021/12/20 09:53:15;;;;;;;4.10;1.70;;;3.60;90.60;;;;;;5085707;28;20024;-74
2021/12/20 09:55:49;;;;;;;8.02;2.78;;;3.20;91.60;;;;;;5085458;28;20042;-74
2021/12/20 09:58:16;;;;;;;7.88;2.78;;;2.90;92.30;;;;;;5085085;28;20055;-74
2021/12/20 10:00:42;;;;;;;17.08;8.68;;;2.70;92.20;;;;;;5084780;28;20480;-74
2021/12/20 10:03:08;;;;;;;31.67;14.68;;;2.70;93.10;;;;;;5103174;28;20051;-74
2021/12/20 10:05:35;;;;;;;19.92;7.88;;;2.70;93.60;;;;;;5101969;28;20044;-74
2021/12/20 10:08:13;;;;;;;6.15;2.42;;;2.80;93.80;;;;;;5092054;28;20673;-73
2021/12/20 10:10:49;;;;;;;5.70;2.70;;;2.80;92.50;;;;;;5104963;28;20128;-74
2021/12/20 10:13:25;;;;;;;27.67;14.85;;;2.90;92.00;;;;;;5105915;28;20355;-74
2021/12/20 10:15:53;;;;;;;31.08;18.38;;;3.00;92.40;;;;;;5105353;28;20040;-74
2021/12/20 10:18:19;;;;;;;11.70;6.43;;;3.00;92.30;;;;;;5098598;28;20039;-74
2021/12/20 10:20:54;;;;;;;15.05;7.40;;;3.00;92.60;;;;;;5086595;28;20066;-74
2021/12/20 10:23:23;;;;;;;10.82;5.38;;;2.90;92.50;;;;;;5080178;28;20455;-74
2021/12/20 10:26:09;;;;;;;9.75;6.45;;;3.00;92.40;;;;;;5082234;28;20043;-74
2021/12/20 10:28:37;;;;;;;11.23;6.90;;;3.10;92.10;;;;;;5103366;28;20030;-74
2021/12/20 10:31:14;;;;;;;13.32;6.55;;;3.10;92.60;;;;;;5102788;28;20024;-74
2021/12/20 10:33:41;;;;;;;6.63;3.65;;;3.20;92.30;;;;;;5102583;28;20054;-74
2021/12/20 10:36:13;;;;;;;15.65;6.88;;;3.10;92.80;;;;;;5094820;28;20047;-74
2021/12/20 10:38:44;;;;;;;170.30;50.65;;;3.10;92.80;;;;;;5082765;28;20111;-73
2021/12/20 10:41:19;;;;;;;142.75;44.33;;;3.20;92.40;;;;;;5083031;28;20032;-74
2021/12/20 10:43:53;;;;;;;40.97;15.80;;;3.50;91.50;;;;;;5084098;28;20028;-74
2021/12/20 10:46:23;;;;;;;7.68;2.65;;;3.40;91.60;;;;;;5089785;28;20063;-74
2021/12/20 10:49:05;;;;;;;11.82;5.70;;;3.80;90.80;;;;;;5104441;28;20461;-74
2021/12/20 10:51:39;;;;;;;3.90;2.17;;;3.90;90.60;;;;;;5104360;28;20073;-74
2021/12/20 10:54:11;;;;;;;5.38;2.25;;;4.00;90.80;;;;;;5103969;28;20097;-74
2021/12/20 10:56:39;;;;;;;7.80;2.47;;;4.10;90.60;;;;;;5098707;28;20119;-74
2021/12/20 10:59:10;;;;;;;5.70;2.20;;;4.20;90.90;;;;;;5081586;28;20064;-74
2021/12/20 11:04:25;;;;;;;8.32;3.47;;;4.40;90.70;;;;;;5083637;28;20093;-74
2021/12/20 11:09:39;;;;;;;8.93;4.50;;;4.40;91.20;;;;;;5095229;28;20521;-74
2021/12/20 11:12:09;;;;;;;12.18;7.95;;;4.40;91.40;;;;;;5083440;28;20032;-74
2021/12/20 11:14:38;;;;;;;9.55;5.10;;;4.60;91.60;;;;;;5083507;28;20025;-74
2021/12/20 11:17:06;;;;;;;6.43;3.42;;;4.60;91.80;;;;;;5083405;28;20100;-74
2021/12/20 11:19:39;;;;;;;7.60;3.65;;;4.40;92.00;;;;;;5084996;28;20030;-74
2021/12/20 11:22:16;;;;;;;18.25;9.02;;;4.40;92.00;;;;;;5088912;28;20053;-74
2021/12/20 11:24:51;;;;;;;57.13;24.45;;;4.60;91.80;;;;;;5069901;28;20451;-74
2021/12/20 11:27:25;;;;;;;27.95;12.77;;;4.70;91.10;;;;;;5067092;28;20111;-74
2021/12/20 11:29:53;;;;;;;129.27;56.17;;;5.00;90.80;;;;;;5081681;28;20030;-74
2021/12/20 11:32:21;;;;;;;50.45;28.90;;;5.20;89.80;;;;;;5088612;28;20031;-74
2021/12/20 11:34:47;;;;;;;14.52;8.05;;;5.30;90.30;;;;;;5094292;28;20543;-74
2021/12/20 11:37:16;;;;;;;17.58;6.80;;;5.50;90.20;;;;;;5086202;28;20098;-74
2021/12/20 11:39:43;;;;;;;10.57;5.82;;;5.50;91.20;;;;;;5087741;28;20474;-74
2021/12/20 11:42:09;;;;;;;9.43;5.65;;;5.60;91.40;;;;;;5087420;28;20028;-74
2021/12/20 11:44:37;;;;;;;9.18;4.88;;;5.50;91.70;;;;;;5104030;28;20032;-74
2021/12/20 11:47:24;;;;;;;11.30;4.90;;;5.30;91.20;;;;;;5106608;28;20027;-74
2021/12/20 11:49:59;;;;;;;11.00;4.93;;;5.10;91.10;;;;;;5087877;28;20020;-74
2021/12/20 11:52:28;;;;;;;;;;;5.10;91.10;;;;;;5106374;28;20031;-74
2021/12/20 11:54:54;;;;;;;11.25;6.78;;;5.10;91.30;;;;;;5107269;28;19947;-74
2021/12/20 11:57:33;;;;;;;15.07;6.93;;;5.20;91.50;;;;;;5106493;28;20063;-74
2021/12/20 12:00:10;;;;;;;11.10;5.80;;;5.40;91.40;;;;;;5106074;28;20107;-74
2021/12/20 12:02:43;;;;;;;18.05;8.30;;;5.70;91.10;;;;;;5090247;28;20030;-74
2021/12/20 12:05:11;;;;;;;12.55;5.00;;;6.00;91.40;;;;;;5086720;28;20585;-74
2021/12/20 12:07:38;;;;;;;10.73;4.57;;;5.90;91.20;;;;;;5087137;28;20016;-74
2021/12/20 12:10:13;;;;;;;11.65;6.88;;;6.00;91.20;;;;;;5086926;28;20032;-74
2021/12/20 12:12:42;;;;;;;11.98;4.93;;;6.10;91.20;;;;;;5068907;28;20059;-74
2021/12/20 12:15:28;;;;;;;8.10;3.63;;;6.30;91.50;;;;;;5086573;28;20055;-74
2021/12/20 12:18:05;;;;;;;9.40;4.80;;;6.40;91.50;;;;;;5107041;28;20024;-74
2021/12/20 12:20:46;;;;;;;7.82;3.63;;;6.50;90.70;;;;;;5107180;28;20020;-74
2021/12/20 12:23:27;;;;;;;7.68;3.53;;;6.50;90.50;;;;;;5105395;28;20056;-74
2021/12/20 12:25:58;;;;;;;6.18;3.03;;;6.60;90.30;;;;;;5066207;28;20021;-74
2021/12/20 12:28:27;;;;;;;4.18;2.58;;;6.60;90.50;;;;;;5065635;28;20024;-73
2021/12/20 12:31:06;;;;;;;6.32;2.95;;;6.50;90.40;;;;;;5064795;28;20060;-75
2021/12/20 12:33:35;;;;;;;9.75;3.88;;;6.50;90.70;;;;;;5064787;28;20059;-75
2021/12/20 12:36:07;;;;;;;8.98;3.45;;;6.50;91.00;;;;;;5085493;28;20046;-75
2021/12/20 12:38:50;;;;;;;8.18;3.80;;;6.40;90.70;;;;;;5090855;28;20110;-75
2021/12/20 12:41:27;;;;;;;10.05;5.13;;;6.30;90.40;;;;;;5105895;28;20814;-75
2021/12/20 12:43:59;;;;;;;10.65;5.35;;;6.40;90.40;;;;;;5106138;28;20031;-74
2021/12/20 12:46:41;;;;;;;13.98;4.57;;;6.40;90.60;;;;;;5106663;28;20027;-74
2021/12/20 12:49:21;;;;;;;7.28;3.60;;;6.30;90.00;;;;;;5098564;28;20401;-75
2021/12/20 12:52:08;;;;;;;7.55;3.83;;;6.40;89.50;;;;;;5085759;28;20032;-75
2021/12/20 12:54:42;;;;;;;9.30;4.15;;;6.40;90.20;;;;;;5085873;28;20020;-75
2021/12/20 12:57:10;;;;;;;9.95;5.20;;;6.30;90.00;;;;;;5085802;28;20119;-75
2021/12/20 12:59:58;;;;;;;8.70;4.03;;;6.10;90.20;;;;;;5091686;28;20035;-75
2021/12/20 13:02:27;;;;;;;11.07;4.25;;;6.20;90.10;;;;;;5085814;28;20072;-75
2021/12/20 13:04:57;;;;;;;7.05;3.33;;;6.20;90.30;;;;;;5085954;28;20082;-76
2021/12/20 13:07:30;;;;;;;9.65;4.13;;;6.20;90.70;;;;;;5085619;28;20474;-75
2021/12/20 13:09:59;;;;;;;9.23;3.45;;;6.10;90.60;;;;;;5087050;28;20131;-76
2021/12/20 13:15:24;;;;;;;9.88;3.30;;;6.10;90.10;;;;;;5085257;28;20060;-75
2021/12/20 13:17:54;;;;;;;6.50;2.92;;;6.20;89.10;;;;;;5085882;28;20020;-76
2021/12/20 13:23:03;;;;;;;9.30;3.83;;;6.60;91.40;;;;;;5093170;28;20028;-74